createdAt,value
2023-04-23T00:01:28.035Z,9.85
2023-04-23T00:03:57.568Z,9.84
2023-04-23T00:06:24.686Z,9.79
2023-04-23T00:08:54.352Z,9.77
2023-04-23T00:11:21.518Z,9.76
2023-04-23T00:13:48.351Z,9.76
2023-04-23T00:16:15.846Z,9.74
2023-04-23T00:18:42.371Z,9.74
2023-04-23T00:21:08.889Z,9.70
2023-04-23T00:23:35.434Z,9.65
2023-04-23T00:26:03.316Z,9.63
2023-04-23T00:28:29.854Z,9.60
2023-04-23T00:30:56.418Z,9.58
2023-04-23T00:33:22.993Z,9.54
2023-04-23T00:35:49.475Z,9.46
2023-04-23T00:38:16.000Z,9.43
2023-04-23T00:40:42.469Z,9.41
2023-04-23T00:43:10.499Z,9.38
2023-04-23T00:45:37.149Z,9.35
2023-04-23T00:48:03.904Z,9.33
2023-04-23T00:50:30.437Z,9.34
2023-04-23T00:52:56.927Z,9.37
2023-04-23T00:55:23.419Z,9.35
2023-04-23T00:57:50.678Z,9.35
2023-04-23T01:00:19.162Z,9.34
2023-04-23T01:02:47.397Z,9.35
2023-04-23T01:05:15.958Z,9.35
2023-04-23T01:07:43.814Z,9.34
2023-04-23T01:10:11.362Z,9.32
2023-04-23T01:12:38.035Z,9.32
2023-04-23T01:15:05.614Z,9.33
2023-04-23T01:17:33.411Z,9.33
2023-04-23T01:19:59.986Z,9.34
2023-04-23T01:22:27.808Z,9.34
2023-04-23T01:24:54.804Z,9.38
2023-04-23T01:27:21.346Z,9.41
2023-04-23T01:29:49.058Z,9.41
2023-04-23T01:32:16.412Z,9.42
2023-04-23T01:34:44.071Z,9.44
2023-04-23T01:37:11.263Z,9.44
2023-04-23T01:39:39.129Z,9.46
2023-04-23T01:42:06.170Z,9.47
2023-04-23T01:44:32.702Z,9.49
2023-04-23T01:46:59.234Z,9.49
2023-04-23T01:49:25.865Z,9.52
2023-04-23T01:51:52.376Z,9.53
2023-04-23T01:54:18.912Z,9.54
2023-04-23T01:56:46.774Z,9.56
2023-04-23T01:59:13.373Z,9.58
2023-04-23T02:01:44.800Z,9.61
2023-04-23T02:04:12.958Z,9.63
2023-04-23T02:06:39.622Z,9.63
2023-04-23T02:09:06.190Z,9.63
2023-04-23T02:11:33.921Z,9.61
2023-04-23T02:14:02.288Z,9.60
2023-04-23T02:16:28.873Z,9.59
2023-04-23T02:18:55.509Z,9.58
2023-04-23T02:21:23.077Z,9.54
2023-04-23T02:23:49.580Z,9.51
2023-04-23T02:26:16.148Z,9.49
2023-04-23T02:28:42.615Z,9.48
2023-04-23T02:31:10.570Z,9.46
2023-04-23T02:33:37.073Z,9.46
2023-04-23T02:36:03.772Z,9.46
2023-04-23T02:38:30.248Z,9.46
2023-04-23T02:40:56.746Z,9.46
2023-04-23T02:43:23.270Z,9.48
2023-04-23T02:45:49.773Z,9.50
2023-04-23T02:48:17.625Z,9.49
2023-04-23T02:50:44.114Z,9.49
2023-04-23T02:53:10.587Z,9.50
2023-04-23T02:55:37.082Z,9.49
2023-04-23T02:58:03.574Z,9.46
2023-04-23T03:00:30.141Z,9.44
2023-04-23T03:02:56.795Z,9.41
2023-04-23T03:05:24.790Z,9.41
2023-04-23T03:07:51.326Z,9.38
2023-04-23T03:10:17.939Z,9.38
2023-04-23T03:12:44.482Z,9.36
2023-04-23T03:15:11.344Z,9.33
2023-04-23T03:17:37.832Z,9.32
2023-04-23T03:20:05.597Z,9.29
2023-04-23T03:22:33.468Z,9.27
2023-04-23T03:25:00.010Z,9.27
2023-04-23T03:27:26.522Z,9.26
2023-04-23T03:29:53.009Z,9.27
2023-04-23T03:32:19.542Z,9.25
2023-04-23T03:34:46.059Z,9.27
2023-04-23T03:37:13.188Z,9.25
2023-04-23T03:39:41.026Z,9.27
2023-04-23T03:42:07.553Z,9.26
2023-04-23T03:44:34.037Z,9.28
2023-04-23T03:47:00.604Z,9.29
2023-04-23T03:49:27.067Z,9.31
2023-04-23T03:51:53.538Z,9.34
2023-04-23T03:54:20.109Z,9.34
2023-04-23T03:56:47.974Z,9.38
2023-04-23T03:59:14.508Z,9.40
2023-04-23T04:01:40.975Z,9.42
2023-04-23T04:04:07.678Z,9.43
2023-04-23T04:06:34.651Z,9.47
2023-04-23T04:09:01.182Z,9.50
2023-04-23T04:11:27.625Z,9.50
2023-04-23T04:13:55.434Z,9.51
2023-04-23T04:16:21.928Z,9.53
2023-04-23T04:18:48.458Z,9.56
2023-04-23T04:21:14.957Z,9.58
2023-04-23T04:23:41.435Z,9.60
2023-04-23T04:26:07.950Z,9.62
2023-04-23T04:28:34.457Z,9.63
2023-04-23T04:31:02.290Z,9.64
2023-04-23T04:33:28.778Z,9.63
2023-04-23T04:35:56.112Z,9.65
2023-04-23T04:38:22.638Z,9.67
2023-04-23T04:40:49.359Z,9.69
2023-04-23T04:43:15.879Z,9.70
2023-04-23T04:45:42.365Z,9.71
2023-04-23T04:48:10.143Z,9.71
2023-04-23T04:50:36.673Z,9.73
2023-04-23T04:53:03.192Z,9.74
2023-04-23T04:55:29.714Z,9.74
2023-04-23T04:57:56.327Z,9.72
2023-04-23T05:00:25.109Z,9.73
2023-04-23T05:02:51.809Z,9.74
2023-04-23T05:05:20.191Z,9.74
2023-04-23T05:07:46.644Z,9.76
2023-04-23T05:10:14.221Z,9.79
2023-04-23T05:12:40.874Z,9.79
2023-04-23T05:15:08.289Z,9.82
2023-04-23T05:17:35.079Z,9.84
2023-04-23T05:20:01.607Z,9.87
2023-04-23T05:22:29.462Z,9.90
2023-04-23T05:24:55.941Z,9.94
2023-04-23T05:27:22.509Z,9.99
2023-04-23T05:29:48.984Z,10.02
2023-04-23T05:32:15.546Z,10.06
2023-04-23T05:34:42.239Z,10.10
2023-04-23T05:37:08.966Z,10.16
2023-04-23T05:39:36.819Z,10.20
2023-04-23T05:42:03.578Z,10.26
2023-04-23T05:44:30.042Z,10.30
2023-04-23T05:46:56.532Z,10.34
2023-04-23T05:49:23.113Z,10.39
2023-04-23T05:51:49.958Z,10.46
2023-04-23T05:54:16.445Z,10.51
2023-04-23T05:56:44.313Z,10.53
2023-04-23T05:59:11.288Z,10.53
2023-04-23T06:01:37.795Z,10.56
2023-04-23T06:04:04.591Z,10.58
2023-04-23T06:06:31.221Z,10.64
2023-04-23T06:08:57.729Z,10.69
2023-04-23T06:11:24.478Z,10.75
2023-04-23T06:13:52.294Z,10.82
2023-04-23T06:16:18.805Z,10.86
2023-04-23T06:18:45.370Z,10.93
2023-04-23T06:21:11.859Z,11.02
2023-04-23T06:23:38.354Z,11.08
2023-04-23T06:26:05.046Z,11.15
2023-04-23T06:28:31.621Z,11.20
2023-04-23T06:30:59.510Z,11.26
2023-04-23T06:33:26.035Z,11.34
2023-04-23T06:35:52.519Z,11.40
2023-04-23T06:38:19.002Z,11.44
2023-04-23T06:40:45.890Z,11.51
2023-04-23T06:43:12.408Z,11.58
2023-04-23T06:45:38.880Z,11.66
2023-04-23T06:48:06.794Z,11.72
2023-04-23T06:50:33.347Z,11.79
2023-04-23T06:52:59.842Z,11.91
2023-04-23T06:55:26.441Z,11.98
2023-04-23T06:57:53.026Z,12.01
2023-04-23T07:00:19.622Z,12.13
2023-04-23T07:02:46.237Z,12.18
2023-04-23T07:05:14.238Z,12.24
2023-04-23T07:07:40.800Z,12.31
2023-04-23T07:10:08.813Z,12.42
2023-04-23T07:12:35.610Z,12.49
2023-04-23T07:15:02.147Z,12.58
2023-04-23T07:17:28.743Z,12.60
2023-04-23T07:19:55.230Z,12.65
2023-04-23T07:22:24.207Z,12.77
2023-04-23T07:24:50.800Z,12.80
2023-04-23T07:27:17.743Z,12.86
2023-04-23T07:29:44.273Z,12.93
2023-04-23T07:32:10.952Z,12.97
2023-04-23T07:34:38.105Z,13.03
2023-04-23T07:37:04.741Z,13.08
2023-04-23T07:39:33.161Z,13.15
2023-04-23T07:42:00.290Z,13.20
2023-04-23T07:44:26.767Z,13.29
2023-04-23T07:46:53.320Z,13.32
2023-04-23T07:49:19.795Z,13.36
2023-04-23T07:51:46.369Z,13.39
2023-04-23T07:54:12.855Z,13.44
2023-04-23T07:56:42.700Z,13.48
2023-04-23T07:59:09.899Z,13.56
2023-04-23T08:01:36.472Z,13.65
2023-04-23T08:04:03.309Z,13.73
2023-04-23T08:06:30.143Z,13.78
2023-04-23T08:08:56.916Z,13.84
2023-04-23T08:11:23.492Z,13.92
2023-04-23T08:13:51.313Z,13.98
2023-04-23T08:16:17.896Z,14.01
2023-04-23T08:18:57.789Z,14.09
2023-04-23T08:21:31.126Z,14.17
2023-04-23T08:23:57.630Z,14.25
2023-04-23T08:26:24.162Z,14.35
2023-04-23T08:28:51.976Z,14.40
2023-04-23T08:31:25.897Z,14.47
2023-04-23T08:33:53.732Z,14.54
2023-04-23T08:36:20.304Z,14.61
2023-04-23T08:38:46.787Z,14.67
2023-04-23T08:41:15.135Z,14.71
2023-04-23T08:43:46.643Z,14.76
2023-04-23T08:46:14.484Z,14.82
2023-04-23T08:48:41.800Z,14.90
2023-04-23T08:51:09.741Z,14.96
2023-04-23T08:53:38.441Z,14.98
2023-04-23T08:56:07.957Z,15.10
2023-04-23T08:58:35.073Z,15.24
2023-04-23T09:01:01.876Z,15.32
2023-04-23T09:03:30.453Z,15.42
2023-04-23T09:05:57.259Z,15.48
2023-04-23T09:08:24.081Z,15.49
2023-04-23T09:10:52.387Z,15.53
2023-04-23T09:13:18.901Z,15.63
2023-04-23T09:15:45.453Z,15.77
2023-04-23T09:18:12.126Z,15.90
2023-04-23T09:20:40.038Z,15.98
2023-04-23T09:23:07.804Z,16.03
2023-04-23T09:25:34.544Z,16.19
2023-04-23T09:28:01.061Z,16.32
2023-04-23T09:30:28.556Z,16.36
2023-04-23T09:32:55.447Z,16.37
2023-04-23T09:35:22.064Z,16.42
2023-04-23T09:37:51.920Z,16.45
2023-04-23T09:40:20.597Z,16.57
2023-04-23T09:42:48.415Z,16.66
2023-04-23T09:45:15.021Z,16.73
2023-04-23T09:47:49.500Z,16.83
2023-04-23T09:50:16.060Z,16.92
2023-04-23T09:52:42.637Z,17.03
2023-04-23T09:55:10.636Z,17.07
2023-04-23T09:57:37.451Z,17.09
2023-04-23T10:00:15.039Z,17.17
2023-04-23T10:02:46.650Z,17.21
2023-04-23T10:05:24.115Z,17.20
2023-04-23T10:07:52.737Z,17.14
2023-04-23T10:10:21.120Z,17.09
2023-04-23T10:12:54.903Z,17.03
2023-04-23T10:15:23.674Z,17.05
2023-04-23T10:17:51.586Z,17.04
2023-04-23T10:20:21.613Z,17.08
2023-04-23T10:22:48.926Z,17.10
2023-04-23T10:25:15.977Z,17.06
2023-04-23T10:27:53.879Z,17.08
2023-04-23T10:30:21.674Z,17.05
2023-04-23T10:32:48.977Z,17.02
2023-04-23T10:35:15.743Z,16.97
2023-04-23T10:37:42.987Z,16.92
2023-04-23T10:40:13.181Z,16.88
2023-04-23T10:42:40.597Z,16.96
2023-04-23T10:45:23.414Z,17.03
2023-04-23T10:47:52.714Z,17.13
2023-04-23T10:50:24.210Z,17.24
2023-04-23T10:52:50.823Z,17.35
2023-04-23T10:55:18.983Z,17.45
2023-04-23T10:58:01.252Z,17.56
2023-04-23T11:00:42.291Z,17.63
2023-04-23T11:03:30.814Z,17.72
2023-04-23T11:05:58.132Z,17.71
2023-04-23T11:08:24.601Z,17.67
2023-04-23T11:10:58.163Z,17.68
2023-04-23T11:13:25.660Z,17.67
2023-04-23T11:16:16.057Z,17.64
2023-04-23T11:18:56.233Z,17.68
2023-04-23T11:21:22.776Z,17.66
2023-04-23T11:23:49.237Z,17.63
2023-04-23T11:26:17.767Z,17.67
2023-04-23T11:28:45.540Z,17.71
2023-04-23T11:31:12.055Z,17.72
2023-04-23T11:33:39.919Z,17.71
2023-04-23T11:36:06.918Z,17.72
2023-04-23T11:38:33.399Z,17.79
2023-04-23T11:41:02.221Z,17.91
2023-04-23T11:43:28.995Z,17.99
2023-04-23T11:45:55.760Z,18.09
2023-04-23T11:48:23.776Z,18.21
2023-04-23T11:50:52.631Z,18.31
2023-04-23T11:53:21.893Z,18.30
2023-04-23T11:55:49.166Z,18.31
2023-04-23T11:58:17.887Z,18.35
2023-04-23T12:00:44.367Z,18.37
2023-04-23T12:03:10.983Z,18.44
2023-04-23T12:05:41.056Z,18.40
2023-04-23T12:08:10.554Z,18.36
2023-04-23T12:10:42.979Z,18.38
2023-04-23T12:13:13.696Z,18.43
2023-04-23T12:15:45.531Z,18.50
2023-04-23T12:18:12.059Z,18.55
2023-04-23T12:20:38.577Z,18.62
2023-04-23T12:23:05.607Z,18.71
2023-04-23T12:25:34.445Z,18.81
2023-04-23T12:28:02.172Z,18.78
2023-04-23T12:30:29.208Z,18.69
2023-04-23T12:32:59.588Z,18.67
2023-04-23T12:35:38.260Z,18.62
2023-04-23T12:38:05.260Z,18.54
2023-04-23T12:40:31.879Z,18.46
2023-04-23T12:42:59.711Z,18.41
2023-04-23T12:45:26.204Z,18.36
2023-04-23T12:47:53.676Z,18.32
2023-04-23T12:50:20.180Z,18.24
2023-04-23T12:52:46.623Z,18.15
2023-04-23T12:55:13.124Z,18.12
2023-04-23T12:57:39.626Z,18.05
2023-04-23T13:00:08.851Z,17.99
2023-04-23T13:02:35.517Z,17.91
2023-04-23T13:05:02.088Z,17.92
2023-04-23T13:07:28.608Z,18.04
2023-04-23T13:09:55.144Z,18.17
2023-04-23T13:12:21.604Z,18.30
2023-04-23T13:14:48.073Z,18.30
2023-04-23T13:17:15.847Z,18.35
2023-04-23T13:19:42.673Z,18.39
2023-04-23T13:22:09.356Z,18.41
2023-04-23T13:24:35.863Z,18.49
2023-04-23T13:27:02.429Z,18.56
2023-04-23T13:29:28.954Z,18.65
2023-04-23T13:31:56.095Z,18.65
2023-04-23T13:34:24.150Z,18.64
2023-04-23T13:36:50.901Z,18.58
2023-04-23T13:39:17.369Z,18.51
2023-04-23T13:41:44.041Z,18.36
2023-04-23T13:44:10.535Z,18.25
2023-04-23T13:46:37.135Z,18.09
2023-04-23T13:49:03.738Z,17.88
2023-04-23T13:51:35.720Z,17.79
2023-04-23T13:54:02.890Z,17.72
2023-04-23T13:56:29.981Z,17.62
2023-04-23T13:59:11.577Z,17.46
2023-04-23T14:01:43.672Z,17.39
2023-04-23T14:04:11.725Z,17.25
2023-04-23T14:06:41.628Z,17.24
2023-04-23T14:09:08.113Z,17.08
2023-04-23T14:11:34.776Z,16.95
2023-04-23T14:14:01.313Z,16.77
2023-04-23T14:16:27.924Z,16.68
2023-04-23T14:18:54.468Z,16.55
2023-04-23T14:21:21.978Z,16.37
2023-04-23T14:23:56.453Z,16.30
2023-04-23T14:29:04.147Z,16.10
2023-04-23T14:31:30.758Z,16.03
2023-04-23T14:33:57.363Z,15.84
2023-04-23T14:36:23.889Z,15.78
2023-04-23T14:38:50.400Z,15.63
2023-04-23T14:41:18.252Z,15.47
2023-04-23T14:43:44.741Z,15.33
2023-04-23T14:46:11.349Z,15.16
2023-04-23T14:48:37.812Z,15.12
2023-04-23T14:51:04.357Z,14.94
2023-04-23T14:53:30.855Z,14.90
2023-04-23T14:55:57.386Z,14.78
2023-04-23T14:58:25.358Z,14.72
2023-04-23T15:00:51.853Z,14.70
2023-04-23T15:03:18.561Z,14.61
2023-04-23T15:05:45.117Z,14.56
2023-04-23T15:08:11.595Z,14.61
2023-04-23T15:10:38.049Z,14.54
2023-04-23T15:13:08.006Z,14.44
2023-04-23T15:15:45.050Z,14.42
2023-04-23T15:18:13.342Z,14.33
2023-04-23T15:20:40.006Z,14.30
2023-04-23T15:23:06.742Z,14.31
2023-04-23T15:25:33.349Z,14.27
2023-04-23T15:28:00.186Z,14.25
2023-04-23T15:30:27.341Z,14.23
2023-04-23T15:32:55.949Z,14.23
2023-04-23T15:35:22.685Z,14.20
2023-04-23T15:37:49.249Z,14.23
2023-04-23T15:40:15.886Z,14.25
2023-04-23T15:42:42.743Z,14.26
2023-04-23T15:45:09.700Z,14.28
2023-04-23T15:47:36.399Z,14.26
2023-04-23T15:50:04.632Z,14.25
2023-04-23T15:52:31.483Z,14.23
2023-04-23T15:54:57.974Z,14.18
2023-04-23T15:57:24.474Z,14.14
2023-04-23T15:59:50.969Z,14.14
2023-04-23T16:02:17.652Z,14.10
2023-04-23T16:04:44.515Z,14.04
2023-04-23T16:07:12.498Z,14.02
2023-04-23T16:09:39.093Z,14.03
2023-04-23T16:12:06.401Z,14.03
2023-04-23T16:14:32.882Z,13.98
2023-04-23T16:16:59.532Z,14.01
2023-04-23T16:19:26.074Z,14.08
2023-04-23T16:21:52.571Z,14.12
2023-04-23T16:24:20.404Z,14.17
2023-04-23T16:26:46.889Z,14.17
2023-04-23T16:31:43.733Z,14.20
2023-04-23T16:34:10.269Z,14.17
2023-04-23T16:36:37.061Z,14.14
2023-04-23T16:39:03.796Z,14.10
2023-04-23T16:41:31.600Z,14.03
2023-04-23T16:43:58.143Z,13.97
2023-04-23T16:46:25.730Z,13.98
2023-04-23T16:48:52.285Z,13.96
2023-04-23T16:51:18.855Z,13.96
2023-04-23T16:53:45.384Z,14.03
2023-04-23T16:56:12.042Z,14.04
2023-04-23T16:58:39.882Z,14.07
2023-04-23T17:01:06.415Z,14.10
2023-04-23T17:03:33.059Z,14.13
2023-04-23T17:06:08.658Z,14.16
2023-04-23T17:08:35.217Z,14.19
2023-04-23T17:11:01.819Z,14.11
2023-04-23T17:13:28.329Z,14.08
2023-04-23T17:15:56.137Z,14.01
2023-04-23T17:18:22.622Z,13.98
2023-04-23T17:20:49.096Z,13.99
2023-04-23T17:23:15.537Z,13.97
2023-04-23T17:25:42.151Z,14.01
2023-04-23T17:28:08.683Z,13.91
2023-04-23T17:30:35.262Z,13.87
2023-04-23T17:33:03.130Z,13.85
2023-04-23T17:35:29.687Z,13.87
2023-04-23T17:37:59.014Z,13.80
2023-04-23T17:40:25.582Z,13.81
2023-04-23T17:42:52.117Z,13.80
2023-04-23T17:45:18.834Z,13.78
2023-04-23T17:47:45.439Z,13.75
2023-04-23T17:50:13.378Z,13.71
2023-04-23T17:52:39.933Z,13.64
2023-04-23T17:55:07.154Z,13.62
2023-04-23T17:57:33.672Z,13.62
2023-04-23T18:00:00.204Z,13.62
2023-04-23T18:02:26.781Z,13.60
2023-04-23T18:04:53.430Z,13.55
2023-04-23T18:07:21.270Z,13.60
2023-04-23T18:09:48.114Z,13.59
2023-04-23T18:12:14.821Z,13.59
2023-04-23T18:14:41.278Z,13.66
2023-04-23T18:17:07.834Z,13.70
2023-04-23T18:19:34.346Z,13.68
2023-04-23T18:22:00.846Z,13.69
2023-04-23T18:24:28.692Z,13.62
2023-04-23T18:26:55.162Z,13.60
2023-04-23T18:29:21.851Z,13.58
2023-04-23T18:31:48.339Z,13.54
2023-04-23T18:34:18.316Z,13.53
2023-04-23T18:36:49.333Z,13.52
2023-04-23T18:39:16.034Z,13.53
2023-04-23T18:41:44.132Z,13.54
2023-04-23T18:44:10.967Z,13.57
2023-04-23T18:46:37.469Z,13.57
2023-04-23T18:49:06.181Z,13.63
2023-04-23T18:51:37.756Z,13.58
2023-04-23T18:54:04.477Z,13.48
2023-04-23T18:56:30.973Z,13.25
2023-04-23T18:58:58.804Z,13.12
2023-04-23T19:01:25.404Z,12.95
2023-04-23T19:03:52.856Z,12.94
2023-04-23T19:06:19.534Z,12.71
2023-04-23T19:08:46.034Z,12.58
2023-04-23T19:11:12.554Z,12.54
2023-04-23T19:13:39.070Z,12.45
2023-04-23T19:16:07.200Z,12.47
2023-04-23T19:18:33.715Z,12.55
2023-04-23T19:21:00.225Z,12.30
2023-04-23T19:23:26.769Z,12.26
2023-04-23T19:25:53.376Z,12.24
2023-04-23T19:28:19.868Z,12.14
2023-04-23T19:30:46.406Z,12.25
2023-04-23T19:33:14.201Z,12.11
2023-04-23T19:35:40.698Z,11.90
2023-04-23T19:38:07.232Z,11.88
2023-04-23T19:40:33.719Z,12.01
2023-04-23T19:43:00.240Z,11.82
2023-04-23T19:45:26.708Z,11.67
2023-04-23T19:47:53.301Z,11.64
2023-04-23T19:50:21.160Z,11.54
2023-04-23T19:52:47.792Z,11.54
2023-04-23T19:55:14.652Z,11.51
2023-04-23T19:57:41.107Z,11.57
2023-04-23T20:00:08.789Z,11.58
2023-04-23T20:02:35.467Z,11.60
2023-04-23T20:05:02.130Z,11.57
2023-04-23T20:07:30.004Z,11.29
2023-04-23T20:09:56.465Z,11.30
2023-04-23T20:12:23.285Z,11.30
2023-04-23T20:14:49.776Z,11.47
2023-04-23T20:17:16.349Z,11.30
2023-04-23T20:19:43.103Z,11.25
2023-04-23T20:22:09.735Z,11.13
2023-04-23T20:24:37.556Z,11.22
2023-04-23T20:27:04.323Z,11.08
2023-04-23T20:29:30.872Z,11.14
2023-04-23T20:31:57.456Z,11.04
2023-04-23T20:34:24.022Z,10.94
2023-04-23T20:36:50.536Z,10.94
2023-04-23T20:39:17.092Z,10.94
2023-04-23T20:41:44.907Z,10.92
2023-04-23T20:44:11.347Z,10.99
2023-04-23T20:46:37.911Z,10.94
2023-04-23T20:49:04.466Z,10.89
2023-04-23T20:51:31.559Z,10.90
2023-04-23T20:53:58.165Z,10.85
2023-04-23T20:56:24.625Z,10.88
2023-04-23T20:58:52.554Z,10.98
2023-04-23T21:01:19.108Z,10.88
2023-04-23T21:03:45.770Z,10.93
2023-04-23T21:06:12.459Z,10.91
2023-04-23T21:08:39.234Z,10.93
2023-04-23T21:11:05.809Z,10.89
2023-04-23T21:13:32.301Z,11.08
2023-04-23T21:16:00.164Z,10.98
2023-04-23T21:18:26.669Z,10.87
2023-04-23T21:20:53.191Z,10.91
2023-04-23T21:23:19.693Z,10.84
2023-04-23T21:25:46.197Z,10.85
2023-04-23T21:28:12.854Z,10.84
2023-04-23T21:30:45.696Z,10.88
2023-04-23T21:33:13.896Z,10.81
2023-04-23T21:35:40.461Z,10.84
2023-04-23T21:38:08.006Z,10.82
2023-04-23T21:40:34.588Z,10.87
2023-04-23T21:43:01.575Z,10.95
2023-04-23T21:45:28.340Z,10.84
2023-04-23T21:47:55.056Z,10.88
2023-04-23T21:50:23.022Z,10.81
2023-04-23T21:52:49.724Z,10.81
2023-04-23T21:55:16.307Z,10.89
2023-04-23T21:57:42.793Z,10.81
2023-04-23T22:00:10.628Z,10.83
2023-04-23T22:02:37.270Z,10.89
2023-04-23T22:05:04.277Z,10.83
2023-04-23T22:07:32.096Z,10.81
2023-04-23T22:09:58.598Z,10.80
2023-04-23T22:12:25.075Z,10.82
2023-04-23T22:14:51.533Z,10.84
2023-04-23T22:17:18.135Z,10.88
2023-04-23T22:19:44.856Z,10.78
2023-04-23T22:22:11.457Z,10.76
2023-04-23T22:24:39.286Z,10.89
2023-04-23T22:27:05.761Z,10.78
2023-04-23T22:29:32.271Z,10.76
2023-04-23T22:31:58.773Z,10.75
2023-04-23T22:34:25.322Z,10.74
2023-04-23T22:36:51.832Z,10.74
2023-04-23T22:39:18.278Z,10.76
2023-04-23T22:41:46.092Z,10.80
2023-04-23T22:44:12.546Z,10.81
2023-04-23T22:46:39.188Z,10.84
2023-04-23T22:49:05.786Z,10.99
2023-04-23T22:51:32.256Z,10.93
2023-04-23T22:53:58.832Z,10.89
2023-04-23T22:56:25.476Z,10.85
2023-04-23T22:58:53.427Z,10.87
2023-04-23T23:01:19.951Z,10.89
2023-04-23T23:03:46.597Z,10.90
2023-04-23T23:06:13.173Z,10.90
2023-04-23T23:08:39.650Z,10.82
2023-04-23T23:11:06.149Z,10.82
2023-04-23T23:13:32.645Z,10.81
2023-04-23T23:16:00.698Z,10.79
2023-04-23T23:18:27.259Z,10.81
2023-04-23T23:20:53.787Z,10.84
2023-04-23T23:23:20.297Z,10.85
2023-04-23T23:25:46.800Z,10.82
2023-04-23T23:28:13.328Z,10.75
2023-04-23T23:30:39.914Z,10.79
2023-04-23T23:33:07.804Z,10.77
2023-04-23T23:35:34.320Z,10.70
2023-04-23T23:38:00.823Z,10.64
2023-04-23T23:40:27.300Z,10.63
2023-04-23T23:42:53.764Z,10.65
2023-04-23T23:45:20.399Z,10.59
2023-04-23T23:47:46.925Z,10.60
2023-04-23T23:50:14.761Z,10.63
2023-04-23T23:52:41.284Z,10.61
2023-04-23T23:55:07.805Z,10.58
2023-04-23T23:57:34.293Z,10.64
